createdAt,value
2023-05-25T00:00:31.061Z,95213.00
2023-05-25T00:01:31.059Z,95213.00
2023-05-25T00:02:31.195Z,95211.00
2023-05-25T00:03:31.612Z,95217.00
2023-05-25T00:04:31.157Z,95215.00
2023-05-25T00:05:31.226Z,95217.00
2023-05-25T00:06:31.233Z,95219.00
2023-05-25T00:07:31.304Z,95215.00
2023-05-25T00:08:31.364Z,95213.00
2023-05-25T00:09:31.353Z,95215.00
2023-05-25T00:10:31.395Z,95215.00
2023-05-25T00:11:31.435Z,95215.00
2023-05-25T00:12:31.445Z,95215.00
2023-05-25T00:13:31.476Z,95213.00
2023-05-25T00:14:31.554Z,95211.00
2023-05-25T00:15:31.549Z,95211.00
2023-05-25T00:16:31.638Z,95207.00
2023-05-25T00:17:31.668Z,95205.00
2023-05-25T00:18:31.715Z,95203.00
2023-05-25T00:19:31.710Z,95201.00
2023-05-25T00:20:31.845Z,95201.00
2023-05-25T00:21:31.774Z,95205.00
2023-05-25T00:22:31.838Z,95203.00
2023-05-25T00:23:31.853Z,95203.00
2023-05-25T00:24:31.892Z,95205.00
2023-05-25T00:25:31.964Z,95205.00
2023-05-25T00:26:32.009Z,95203.00
2023-05-25T00:27:32.011Z,95201.00
2023-05-25T00:28:32.052Z,95201.00
2023-05-25T00:29:32.145Z,95203.00
2023-05-25T00:30:32.190Z,95205.00
2023-05-25T00:31:32.294Z,95207.00
2023-05-25T00:32:32.192Z,95211.00
2023-05-25T00:33:32.225Z,95211.00
2023-05-25T00:34:32.277Z,95207.00
2023-05-25T00:35:32.311Z,95211.00
2023-05-25T00:36:32.366Z,95211.00
2023-05-25T00:37:32.418Z,95211.00
2023-05-25T00:38:32.483Z,95213.00
2023-05-25T00:39:32.544Z,95209.00
2023-05-25T00:40:32.572Z,95211.00
2023-05-25T00:41:32.631Z,95209.00
2023-05-25T00:42:32.687Z,95211.00
2023-05-25T00:43:32.713Z,95213.00
2023-05-25T00:44:32.742Z,95211.00
2023-05-25T00:45:32.834Z,95213.00
2023-05-25T00:46:32.884Z,95213.00
2023-05-25T00:47:32.970Z,95215.00
2023-05-25T00:48:33.004Z,95215.00
2023-05-25T00:49:33.070Z,95213.00
2023-05-25T00:50:33.138Z,95211.00
2023-05-25T00:51:33.221Z,95211.00
2023-05-25T00:52:33.336Z,95211.00
2023-05-25T00:53:33.331Z,95213.00
2023-05-25T00:54:33.454Z,95213.00
2023-05-25T00:55:33.479Z,95211.00
2023-05-25T00:56:33.567Z,95213.00
2023-05-25T00:57:33.616Z,95211.00
2023-05-25T00:58:33.701Z,95209.00
2023-05-25T00:59:33.827Z,95211.00
2023-05-25T01:00:33.823Z,95211.00
2023-05-25T01:01:33.932Z,95207.00
2023-05-25T01:02:34.054Z,95209.00
2023-05-25T01:03:34.058Z,95209.00
2023-05-25T01:04:34.068Z,95211.00
2023-05-25T01:05:34.080Z,95207.00
2023-05-25T01:06:34.147Z,95205.00
2023-05-25T01:07:34.206Z,95207.00
2023-05-25T01:08:34.324Z,95209.00
2023-05-25T01:09:34.367Z,95209.00
2023-05-25T01:10:34.399Z,95209.00
2023-05-25T01:11:34.487Z,95213.00
2023-05-25T01:12:34.524Z,95213.00
2023-05-25T01:13:34.583Z,95215.00
2023-05-25T01:14:34.658Z,95213.00
2023-05-25T01:15:34.708Z,95213.00
2023-05-25T01:16:34.790Z,95213.00
2023-05-25T01:17:34.925Z,95215.00
2023-05-25T01:18:34.892Z,95213.00
2023-05-25T01:19:34.953Z,95215.00
2023-05-25T01:20:35.150Z,95219.00
2023-05-25T01:21:35.104Z,95219.00
2023-05-25T01:22:35.175Z,95219.00
2023-05-25T01:23:35.266Z,95219.00
2023-05-25T01:24:35.296Z,95221.00
2023-05-25T01:25:35.381Z,95221.00
2023-05-25T01:26:35.471Z,95226.00
2023-05-25T01:27:35.527Z,95226.00
2023-05-25T01:28:35.578Z,95224.00
2023-05-25T01:29:35.674Z,95226.00
2023-05-25T01:30:35.717Z,95228.00
2023-05-25T01:31:35.808Z,95228.00
2023-05-25T01:32:35.892Z,95226.00
2023-05-25T01:33:36.808Z,95222.00
2023-05-25T01:34:36.006Z,95222.00
2023-05-25T01:35:36.074Z,95222.00
2023-05-25T01:36:36.180Z,95219.00
2023-05-25T01:37:36.211Z,95217.00
2023-05-25T01:38:36.304Z,95215.00
2023-05-25T01:39:36.419Z,95217.00
2023-05-25T01:40:36.429Z,95217.00
2023-05-25T01:41:36.480Z,95211.00
2023-05-25T01:42:36.548Z,95213.00
2023-05-25T01:43:36.640Z,95217.00
2023-05-25T01:44:36.726Z,95215.00
2023-05-25T01:45:36.899Z,95217.00
2023-05-25T01:46:36.854Z,95221.00
2023-05-25T01:47:36.916Z,95221.00
2023-05-25T01:48:36.962Z,95222.00
2023-05-25T01:49:37.061Z,95222.00
2023-05-25T01:50:37.098Z,95224.00
2023-05-25T01:51:37.189Z,95224.00
2023-05-25T01:52:37.256Z,95226.00
2023-05-25T01:53:37.330Z,95224.00
2023-05-25T01:54:37.424Z,95228.00
2023-05-25T01:55:37.474Z,95226.00
2023-05-25T01:56:37.576Z,95228.00
2023-05-25T01:57:37.633Z,95228.00
2023-05-25T01:58:37.724Z,95226.00
2023-05-25T01:59:37.769Z,95228.00
2023-05-25T02:00:37.817Z,95224.00
2023-05-25T02:01:37.892Z,95226.00
2023-05-25T02:02:38.037Z,95228.00
2023-05-25T02:03:38.047Z,95228.00
2023-05-25T02:04:38.138Z,95230.00
2023-05-25T02:05:38.123Z,95230.00
2023-05-25T02:06:38.195Z,95234.00
2023-05-25T02:07:38.271Z,95232.00
2023-05-25T02:08:38.318Z,95234.00
2023-05-25T02:09:38.370Z,95232.00
2023-05-25T02:10:38.425Z,95232.00
2023-05-25T02:11:38.513Z,95234.00
2023-05-25T02:12:38.596Z,95230.00
2023-05-25T02:13:38.654Z,95230.00
2023-05-25T02:14:38.709Z,95226.00
2023-05-25T02:15:38.799Z,95228.00
2023-05-25T02:16:38.880Z,95226.00
2023-05-25T02:17:38.958Z,95226.00
2023-05-25T02:18:38.960Z,95228.00
2023-05-25T02:19:39.038Z,95228.00
2023-05-25T02:20:39.150Z,95230.00
2023-05-25T02:21:39.165Z,95230.00
2023-05-25T02:22:39.203Z,95228.00
2023-05-25T02:23:39.317Z,95228.00
2023-05-25T02:24:39.379Z,95232.00
2023-05-25T02:25:39.466Z,95234.00
2023-05-25T02:26:39.519Z,95236.00
2023-05-25T02:27:39.556Z,95238.00
2023-05-25T02:28:39.631Z,95240.00
2023-05-25T02:29:39.734Z,95240.00
2023-05-25T02:30:39.807Z,95240.00
2023-05-25T02:31:39.964Z,95242.00
2023-05-25T02:32:39.945Z,95242.00
2023-05-25T02:33:39.996Z,95240.00
2023-05-25T02:34:40.045Z,95238.00
2023-05-25T02:35:40.159Z,95242.00
2023-05-25T02:36:40.191Z,95242.00
2023-05-25T02:37:40.256Z,95242.00
2023-05-25T02:38:40.362Z,95244.00
2023-05-25T02:39:40.433Z,95246.00
2023-05-25T02:40:40.491Z,95242.00
2023-05-25T02:41:40.591Z,95244.00
2023-05-25T02:42:40.676Z,95242.00
2023-05-25T02:43:40.708Z,95242.00
2023-05-25T02:44:40.776Z,95246.00
2023-05-25T02:45:40.874Z,95246.00
2023-05-25T02:46:40.922Z,95248.00
2023-05-25T02:47:41.025Z,95246.00
2023-05-25T02:48:41.089Z,95244.00
2023-05-25T02:49:41.181Z,95246.00
2023-05-25T02:50:41.214Z,95244.00
2023-05-25T02:51:41.267Z,95244.00
2023-05-25T02:52:41.351Z,95248.00
2023-05-25T02:53:41.408Z,95250.00
2023-05-25T02:54:41.461Z,95250.00
2023-05-25T02:55:41.627Z,95250.00
2023-05-25T02:56:41.577Z,95250.00
2023-05-25T02:57:41.650Z,95254.00
2023-05-25T02:58:41.743Z,95254.00
2023-05-25T02:59:41.796Z,95256.00
2023-05-25T03:00:41.895Z,95256.00
2023-05-25T03:01:41.949Z,95252.00
2023-05-25T03:02:42.045Z,95252.00
2023-05-25T03:03:42.088Z,95250.00
2023-05-25T03:04:42.174Z,95250.00
2023-05-25T03:05:42.335Z,95252.00
2023-05-25T03:06:42.300Z,95256.00
2023-05-25T03:07:42.345Z,95256.00
2023-05-25T03:08:42.373Z,95256.00
2023-05-25T03:09:42.449Z,95260.00
2023-05-25T03:10:42.500Z,95260.00
2023-05-25T03:11:42.555Z,95256.00
2023-05-25T03:12:42.633Z,95256.00
2023-05-25T03:13:42.700Z,95258.00
2023-05-25T03:14:42.769Z,95256.00
2023-05-25T03:15:42.986Z,95252.00
2023-05-25T03:16:42.938Z,95254.00
2023-05-25T03:17:43.157Z,95254.00
2023-05-25T03:18:43.044Z,95254.00
2023-05-25T03:19:43.141Z,95254.00
2023-05-25T03:20:43.189Z,95256.00
2023-05-25T03:21:43.257Z,95256.00
2023-05-25T03:22:43.320Z,95256.00
2023-05-25T03:23:43.363Z,95258.00
2023-05-25T03:24:43.455Z,95258.00
2023-05-25T03:25:43.677Z,95262.00
2023-05-25T03:26:43.542Z,95264.00
2023-05-25T03:27:43.597Z,95271.00
2023-05-25T03:28:43.634Z,95268.00
2023-05-25T03:29:43.689Z,95271.00
2023-05-25T03:30:43.785Z,95271.00
2023-05-25T03:31:43.881Z,95271.00
2023-05-25T03:32:43.889Z,95275.00
2023-05-25T03:33:43.941Z,95275.00
2023-05-25T03:34:43.999Z,95279.00
2023-05-25T03:35:44.199Z,95281.00
2023-05-25T03:36:44.140Z,95281.00
2023-05-25T03:37:44.184Z,95281.00
2023-05-25T03:38:44.213Z,95285.00
2023-05-25T03:39:44.263Z,95285.00
2023-05-25T03:40:44.291Z,95283.00
2023-05-25T03:41:44.393Z,95281.00
2023-05-25T03:42:44.412Z,95283.00
2023-05-25T03:43:44.452Z,95283.00
2023-05-25T03:44:44.498Z,95285.00
2023-05-25T03:45:44.699Z,95285.00
2023-05-25T03:46:44.654Z,95283.00
2023-05-25T03:47:44.706Z,95283.00
2023-05-25T03:48:44.720Z,95281.00
2023-05-25T03:49:44.796Z,95277.00
2023-05-25T03:50:44.858Z,95275.00
2023-05-25T03:51:44.890Z,95275.00
2023-05-25T03:52:44.957Z,95279.00
2023-05-25T03:53:45.028Z,95279.00
2023-05-25T03:54:45.094Z,95281.00
2023-05-25T03:55:45.354Z,95283.00
2023-05-25T03:56:45.228Z,95283.00
2023-05-25T03:57:45.308Z,95285.00
2023-05-25T03:58:45.375Z,95287.00
2023-05-25T03:59:45.429Z,95287.00
2023-05-25T04:00:45.499Z,95289.00
2023-05-25T04:01:45.538Z,95287.00
2023-05-25T04:02:45.717Z,95287.00
2023-05-25T04:03:45.839Z,95289.00
2023-05-25T04:04:45.793Z,95285.00
2023-05-25T04:05:46.121Z,95287.00
2023-05-25T04:06:45.925Z,95289.00
2023-05-25T04:07:46.014Z,95293.00
2023-05-25T04:08:46.073Z,95295.00
2023-05-25T04:09:46.216Z,95295.00
2023-05-25T04:10:46.246Z,95297.00
2023-05-25T04:11:46.288Z,95299.00
2023-05-25T04:12:46.354Z,95299.00
2023-05-25T04:13:46.405Z,95299.00
2023-05-25T04:14:46.437Z,95301.00
2023-05-25T04:15:46.644Z,95299.00
2023-05-25T04:16:46.576Z,95299.00
2023-05-25T04:17:46.602Z,95303.00
2023-05-25T04:18:46.650Z,95307.00
2023-05-25T04:19:46.685Z,95307.00
2023-05-25T04:20:46.739Z,95309.00
2023-05-25T04:21:46.777Z,95305.00
2023-05-25T04:22:46.819Z,95305.00
2023-05-25T04:23:46.880Z,95307.00
2023-05-25T04:24:46.916Z,95309.00
2023-05-25T04:25:47.107Z,95309.00
2023-05-25T04:26:47.027Z,95309.00
2023-05-25T04:27:47.058Z,95311.00
2023-05-25T04:28:47.085Z,95315.00
2023-05-25T04:29:47.139Z,95315.00
2023-05-25T04:30:47.152Z,95313.00
2023-05-25T04:31:47.293Z,95309.00
2023-05-25T04:32:47.314Z,95313.00
2023-05-25T04:33:47.378Z,95313.00
2023-05-25T04:34:47.401Z,95316.00
2023-05-25T04:35:47.446Z,95316.00
2023-05-25T04:36:47.532Z,95316.00
2023-05-25T04:37:47.567Z,95320.00
2023-05-25T04:38:47.620Z,95322.00
2023-05-25T04:39:47.680Z,95318.00
2023-05-25T04:40:47.725Z,95320.00
2023-05-25T04:41:47.734Z,95326.00
2023-05-25T04:42:47.817Z,95328.00
2023-05-25T04:44:04.726Z,95330.00
2023-05-25T04:44:48.860Z,95328.00
2023-05-25T04:45:48.077Z,95326.00
2023-05-25T04:46:47.883Z,95324.00
2023-05-25T04:47:47.914Z,95330.00
2023-05-25T04:48:47.911Z,95326.00
2023-05-25T04:49:47.928Z,95330.00
2023-05-25T04:50:47.920Z,95328.00
2023-05-25T04:51:47.945Z,95328.00
2023-05-25T04:52:47.956Z,95326.00
2023-05-25T04:53:47.955Z,95326.00
2023-05-25T04:54:47.979Z,95328.00
2023-05-25T04:55:48.078Z,95332.00
2023-05-25T04:56:48.091Z,95330.00
2023-05-25T04:57:48.201Z,95332.00
2023-05-25T04:58:48.246Z,95332.00
2023-05-25T04:59:48.319Z,95332.00
2023-05-25T05:00:49.714Z,95334.00
2023-05-25T05:01:55.495Z,95336.00
2023-05-25T05:02:48.559Z,95336.00
2023-05-25T05:03:48.582Z,95338.00
2023-05-25T05:04:48.542Z,95340.00
2023-05-25T05:05:48.561Z,95340.00
2023-05-25T05:06:48.592Z,95342.00
2023-05-25T05:07:48.590Z,95342.00
2023-05-25T05:08:48.608Z,95346.00
2023-05-25T05:09:49.435Z,95346.00
2023-05-25T05:10:48.619Z,95346.00
2023-05-25T05:11:48.670Z,95348.00
2023-05-25T05:12:48.688Z,95352.00
2023-05-25T05:13:48.686Z,95348.00
2023-05-25T05:14:48.680Z,95348.00
2023-05-25T05:15:48.697Z,95346.00
2023-05-25T05:16:49.756Z,95344.00
2023-05-25T05:17:48.853Z,95348.00
2023-05-25T05:18:48.762Z,95348.00
2023-05-25T05:19:48.780Z,95350.00
2023-05-25T05:20:48.832Z,95350.00
2023-05-25T05:21:49.755Z,95354.00
2023-05-25T05:22:48.783Z,95360.00
2023-05-25T05:23:48.828Z,95358.00
2023-05-25T05:24:48.830Z,95358.00
2023-05-25T05:25:48.807Z,95360.00
2023-05-25T05:26:58.405Z,95363.00
2023-05-25T05:27:49.858Z,95365.00
2023-05-25T05:28:48.848Z,95367.00
2023-05-25T05:29:48.921Z,95367.00
2023-05-25T05:30:48.912Z,95371.00
2023-05-25T05:31:48.917Z,95369.00
2023-05-25T05:32:48.959Z,95371.00
2023-05-25T05:33:48.934Z,95371.00
2023-05-25T05:34:48.949Z,95371.00
2023-05-25T05:35:48.934Z,95369.00
2023-05-25T05:36:57.511Z,95373.00
2023-05-25T05:37:50.453Z,95373.00
2023-05-25T05:38:49.009Z,95379.00
2023-05-25T05:39:49.013Z,95379.00
2023-05-25T05:40:49.098Z,95381.00
2023-05-25T05:41:49.079Z,95379.00
2023-05-25T05:42:49.082Z,95381.00
2023-05-25T05:43:49.103Z,95381.00
2023-05-25T05:44:49.111Z,95379.00
2023-05-25T05:47:08.372Z,95387.00
2023-05-25T05:48:08.158Z,95387.00
2023-05-25T05:49:08.115Z,95389.00
2023-05-25T05:50:08.102Z,95389.00
2023-05-25T05:51:08.101Z,95391.00
2023-05-25T05:52:08.073Z,95391.00
2023-05-25T05:53:08.318Z,95395.00
2023-05-25T05:54:08.027Z,95393.00
2023-05-25T05:55:08.044Z,95393.00
2023-05-25T05:56:08.002Z,95391.00
2023-05-25T05:57:08.008Z,95393.00
2023-05-25T05:58:07.994Z,95395.00
2023-05-25T05:59:07.971Z,95395.00
2023-05-25T06:00:07.968Z,95395.00
2023-05-25T06:01:07.982Z,95393.00
2023-05-25T06:02:07.990Z,95395.00
2023-05-25T06:03:07.984Z,95395.00
2023-05-25T06:04:07.914Z,95393.00
2023-05-25T06:05:07.969Z,95393.00
2023-05-25T06:06:08.057Z,95393.00
2023-05-25T06:07:07.842Z,95393.00
2023-05-25T06:08:07.833Z,95393.00
2023-05-25T06:09:07.829Z,95395.00
2023-05-25T06:10:07.853Z,95395.00
2023-05-25T06:11:07.813Z,95395.00
2023-05-25T06:12:07.811Z,95393.00
2023-05-25T06:13:08.879Z,95389.00
2023-05-25T06:14:07.874Z,95389.00
2023-05-25T06:15:07.872Z,95385.00
2023-05-25T06:16:08.945Z,95389.00
2023-05-25T06:17:08.857Z,95385.00
2023-05-25T06:18:07.861Z,95389.00
2023-05-25T06:19:07.834Z,95387.00
2023-05-25T06:20:07.810Z,95387.00
2023-05-25T06:21:07.762Z,95387.00
2023-05-25T06:22:07.888Z,95383.00
2023-05-25T06:23:07.823Z,95387.00
2023-05-25T06:24:07.800Z,95387.00
2023-05-25T06:25:07.818Z,95385.00
2023-05-25T06:26:08.779Z,95387.00
2023-05-25T06:27:07.762Z,95383.00
2023-05-25T06:28:07.756Z,95387.00
2023-05-25T06:29:07.866Z,95387.00
2023-05-25T06:30:07.731Z,95387.00
2023-05-25T06:31:07.756Z,95387.00
2023-05-25T06:32:07.775Z,95387.00
2023-05-25T06:33:07.838Z,95391.00
2023-05-25T06:34:07.667Z,95391.00
2023-05-25T06:35:08.097Z,95395.00
2023-05-25T06:36:07.734Z,95389.00
2023-05-25T06:37:07.825Z,95391.00
2023-05-25T06:38:07.856Z,95389.00
2023-05-25T06:39:07.845Z,95389.00
2023-05-25T06:40:07.899Z,95391.00
2023-05-25T06:41:07.902Z,95393.00
2023-05-25T06:42:07.952Z,95391.00
2023-05-25T06:43:07.967Z,95395.00
2023-05-25T06:44:08.335Z,95395.00
2023-05-25T06:45:08.068Z,95399.00
2023-05-25T06:46:08.183Z,95399.00
2023-05-25T06:47:08.062Z,95399.00
2023-05-25T06:48:08.199Z,95401.00
2023-05-25T06:49:08.383Z,95401.00
2023-05-25T06:50:08.242Z,95403.00
2023-05-25T06:51:08.180Z,95403.00
2023-05-25T06:52:08.207Z,95403.00
2023-05-25T06:53:08.209Z,95403.00
2023-05-25T06:54:08.373Z,95403.00
2023-05-25T06:55:08.331Z,95401.00
2023-05-25T06:56:08.385Z,95399.00
2023-05-25T06:57:08.375Z,95399.00
2023-05-25T06:58:08.387Z,95397.00
2023-05-25T06:59:08.409Z,95399.00
2023-05-25T07:00:08.460Z,95399.00
2023-05-25T07:01:08.498Z,95399.00
2023-05-25T07:02:08.518Z,95397.00
2023-05-25T07:03:08.557Z,95399.00
2023-05-25T07:04:08.843Z,95397.00
2023-05-25T07:05:08.665Z,95401.00
2023-05-25T07:06:08.619Z,95405.00
2023-05-25T07:07:08.676Z,95403.00
2023-05-25T07:08:08.727Z,95405.00
2023-05-25T07:09:08.759Z,95405.00
2023-05-25T07:10:08.860Z,95405.00
2023-05-25T07:11:08.801Z,95409.00
2023-05-25T07:12:08.913Z,95409.00
2023-05-25T07:13:08.963Z,95416.00
2023-05-25T07:14:08.950Z,95407.00
2023-05-25T07:15:09.358Z,95407.00
2023-05-25T07:16:09.064Z,95405.00
2023-05-25T07:17:09.103Z,95407.00
2023-05-25T07:18:09.140Z,95409.00
2023-05-25T07:19:09.206Z,95407.00
2023-05-25T07:20:09.223Z,95407.00
2023-05-25T07:21:09.216Z,95407.00
2023-05-25T07:22:09.271Z,95409.00
2023-05-25T07:23:09.292Z,95416.00
2023-05-25T07:24:09.354Z,95409.00
2023-05-25T07:25:09.397Z,95405.00
2023-05-25T07:26:09.393Z,95405.00
2023-05-25T07:27:09.369Z,95407.00
2023-05-25T07:28:09.426Z,95409.00
2023-05-25T07:29:09.424Z,95409.00
2023-05-25T07:30:09.470Z,95409.00
2023-05-25T07:31:09.509Z,95409.00
2023-05-25T07:32:09.520Z,95409.00
2023-05-25T07:33:09.647Z,95405.00
2023-05-25T07:34:09.612Z,95407.00
2023-05-25T07:35:09.647Z,95407.00
2023-05-25T07:36:09.622Z,95409.00
2023-05-25T07:37:09.681Z,95405.00
2023-05-25T07:38:09.705Z,95409.00
2023-05-25T07:39:09.725Z,95407.00
2023-05-25T07:40:09.740Z,95407.00
2023-05-25T07:41:09.785Z,95407.00
2023-05-25T07:42:09.833Z,95405.00
2023-05-25T07:43:09.848Z,95416.00
2023-05-25T07:44:09.903Z,95416.00
2023-05-25T07:45:09.917Z,95418.00
2023-05-25T07:46:09.957Z,95416.00
2023-05-25T07:47:10.083Z,95420.00
2023-05-25T07:48:10.041Z,95420.00
2023-05-25T07:49:10.040Z,95418.00
2023-05-25T07:50:10.129Z,95422.00
2023-05-25T07:51:10.126Z,95418.00
2023-05-25T07:52:10.153Z,95418.00
2023-05-25T07:53:10.190Z,95416.00
2023-05-25T07:54:10.229Z,95416.00
2023-05-25T07:55:10.287Z,95416.00
2023-05-25T07:56:10.753Z,95420.00
2023-05-25T07:57:10.384Z,95418.00
2023-05-25T07:58:10.442Z,95416.00
2023-05-25T07:59:10.498Z,95418.00
2023-05-25T08:00:10.496Z,95416.00
2023-05-25T08:01:10.548Z,95418.00
2023-05-25T08:02:10.610Z,95409.00
2023-05-25T08:03:10.862Z,95407.00
2023-05-25T08:04:10.776Z,95407.00
2023-05-25T08:05:10.845Z,95407.00
2023-05-25T08:06:10.762Z,95405.00
2023-05-25T08:07:10.837Z,95403.00
2023-05-25T08:08:10.893Z,95405.00
2023-05-25T08:09:10.915Z,95405.00
2023-05-25T08:10:10.945Z,95405.00
2023-05-25T08:11:10.990Z,95405.00
2023-05-25T08:12:30.211Z,95405.00
2023-05-25T08:13:11.955Z,95409.00
2023-05-25T08:14:10.936Z,95409.00
2023-05-25T08:15:10.916Z,95409.00
2023-05-25T08:16:10.916Z,95409.00
2023-05-25T08:17:10.905Z,95407.00
2023-05-25T08:18:10.920Z,95407.00
2023-05-25T08:19:10.848Z,95405.00
2023-05-25T08:20:10.927Z,95407.00
2023-05-25T08:21:10.872Z,95409.00
2023-05-25T08:22:10.856Z,95409.00
2023-05-25T08:23:10.891Z,95409.00
2023-05-25T08:24:10.910Z,95418.00
2023-05-25T08:25:10.970Z,95407.00
2023-05-25T08:26:28.658Z,95418.00
2023-05-25T08:27:12.014Z,95416.00
2023-05-25T08:28:10.994Z,95409.00
2023-05-25T08:29:10.978Z,95407.00
2023-05-25T08:30:10.965Z,95418.00
2023-05-25T08:31:10.957Z,95422.00
2023-05-25T08:32:10.950Z,95420.00
2023-05-25T08:33:10.967Z,95418.00
2023-05-25T08:34:10.932Z,95418.00
2023-05-25T08:35:10.949Z,95420.00
2023-05-25T08:36:10.884Z,95418.00
2023-05-25T08:37:10.855Z,95418.00
2023-05-25T08:38:10.915Z,95422.00
2023-05-25T08:39:10.986Z,95420.00
2023-05-25T08:40:10.990Z,95418.00
2023-05-25T08:41:11.038Z,95418.00
2023-05-25T08:42:11.102Z,95422.00
2023-05-25T08:43:11.121Z,95418.00
2023-05-25T08:44:11.151Z,95418.00
2023-05-25T08:45:22.559Z,95409.00
2023-05-25T08:46:12.146Z,95416.00
2023-05-25T08:47:11.167Z,95416.00
2023-05-25T08:48:12.078Z,95407.00
2023-05-25T08:49:11.195Z,95407.00
2023-05-25T08:50:11.460Z,95407.00
2023-05-25T08:51:11.731Z,95401.00
2023-05-25T08:52:11.068Z,95397.00
2023-05-25T08:53:11.124Z,95399.00
2023-05-25T08:54:10.991Z,95397.00
2023-05-25T08:55:11.045Z,95391.00
2023-05-25T08:56:11.396Z,95393.00
2023-05-25T08:57:11.031Z,95393.00
2023-05-25T08:58:11.956Z,95397.00
2023-05-25T08:59:10.930Z,95387.00
2023-05-25T09:00:11.186Z,95389.00
2023-05-25T09:01:11.378Z,95387.00
2023-05-25T09:02:11.011Z,95391.00
2023-05-25T09:03:10.923Z,95387.00
2023-05-25T09:04:10.887Z,95389.00
2023-05-25T09:05:10.837Z,95385.00
2023-05-25T09:06:10.832Z,95387.00
2023-05-25T09:07:11.354Z,95383.00
2023-05-25T09:08:10.790Z,95383.00
2023-05-25T09:09:10.796Z,95387.00
2023-05-25T09:10:11.227Z,95385.00
2023-05-25T09:11:10.907Z,95383.00
2023-05-25T09:12:10.934Z,95385.00
2023-05-25T09:13:21.342Z,95383.00
2023-05-25T09:14:11.947Z,95385.00
2023-05-25T09:15:10.945Z,95387.00
2023-05-25T09:16:11.457Z,95393.00
2023-05-25T09:17:10.921Z,95389.00
2023-05-25T09:19:10.887Z,95391.00
2023-05-25T09:20:11.194Z,95389.00
2023-05-25T09:21:10.838Z,95389.00
2023-05-25T09:23:10.785Z,95391.00
2023-05-25T09:24:10.800Z,95389.00
2023-05-25T09:25:10.818Z,95385.00
2023-05-25T09:26:10.793Z,95385.00
2023-05-25T09:27:10.744Z,95385.00
2023-05-25T09:28:25.744Z,95389.00
2023-05-25T09:29:11.684Z,95389.00
2023-05-25T09:30:10.709Z,95389.00
2023-05-25T09:31:10.978Z,95389.00
2023-05-25T09:32:10.720Z,95387.00
2023-05-25T09:33:10.643Z,95389.00
2023-05-25T09:34:10.588Z,95387.00
2023-05-25T09:35:10.570Z,95385.00
2023-05-25T09:36:10.587Z,95387.00
2023-05-25T09:37:10.662Z,95387.00
2023-05-25T09:38:10.704Z,95389.00
2023-05-25T09:39:10.610Z,95385.00
2023-05-25T09:40:10.481Z,95387.00
2023-05-25T09:41:11.198Z,95387.00
2023-05-25T09:42:10.456Z,95387.00
2023-05-25T09:43:10.425Z,95383.00
2023-05-25T09:44:11.957Z,95381.00
2023-05-25T09:45:10.354Z,95379.00
2023-05-25T09:46:10.439Z,95381.00
2023-05-25T09:47:10.456Z,95381.00
2023-05-25T09:48:10.393Z,95377.00
2023-05-25T09:49:10.265Z,95375.00
2023-05-25T09:50:10.298Z,95371.00
2023-05-25T09:51:10.250Z,95371.00
2023-05-25T09:52:10.417Z,95369.00
2023-05-25T09:53:10.366Z,95371.00
2023-05-25T09:54:10.166Z,95369.00
2023-05-25T09:55:10.124Z,95371.00
2023-05-25T09:56:10.078Z,95373.00
2023-05-25T09:57:10.445Z,95367.00
2023-05-25T09:58:10.127Z,95371.00
2023-05-25T09:59:10.035Z,95371.00
2023-05-25T10:00:10.007Z,95369.00
2023-05-25T10:01:10.055Z,95369.00
2023-05-25T10:02:10.861Z,95367.00
2023-05-25T10:03:10.058Z,95369.00
2023-05-25T10:04:10.038Z,95363.00
2023-05-25T10:05:10.086Z,95365.00
2023-05-25T10:06:10.071Z,95362.00
2023-05-25T10:07:10.090Z,95363.00
2023-05-25T10:08:10.152Z,95362.00
2023-05-25T10:09:10.173Z,95360.00
2023-05-25T10:10:10.200Z,95356.00
2023-05-25T10:11:10.223Z,95356.00
2023-05-25T10:12:10.375Z,95352.00
2023-05-25T10:13:10.268Z,95352.00
2023-05-25T10:14:11.747Z,95352.00
2023-05-25T10:15:10.372Z,95350.00
2023-05-25T10:16:10.642Z,95352.00
2023-05-25T10:17:11.888Z,95348.00
2023-05-25T10:18:11.133Z,95350.00
2023-05-25T10:19:10.450Z,95348.00
2023-05-25T10:20:10.482Z,95352.00
2023-05-25T10:21:10.509Z,95348.00
2023-05-25T10:22:10.501Z,95352.00
2023-05-25T10:23:10.579Z,95348.00
2023-05-25T10:24:10.575Z,95350.00
2023-05-25T10:25:10.554Z,95344.00
2023-05-25T10:26:11.148Z,95346.00
2023-05-25T10:28:11.574Z,95344.00
2023-05-25T10:29:10.519Z,95342.00
2023-05-25T10:30:10.525Z,95342.00
2023-05-25T10:31:10.509Z,95344.00
2023-05-25T10:32:10.459Z,95344.00
2023-05-25T10:33:10.438Z,95344.00
2023-05-25T10:34:10.390Z,95344.00
2023-05-25T10:35:10.390Z,95346.00
2023-05-25T10:36:11.518Z,95344.00
2023-05-25T10:37:10.451Z,95340.00
2023-05-25T10:38:10.278Z,95344.00
2023-05-25T10:39:10.450Z,95344.00
2023-05-25T10:40:10.349Z,95342.00
2023-05-25T10:41:10.377Z,95340.00
2023-05-25T10:42:10.436Z,95340.00
2023-05-25T10:43:10.387Z,95340.00
2023-05-25T10:44:10.482Z,95340.00
2023-05-25T10:45:10.403Z,95338.00
2023-05-25T10:46:10.412Z,95336.00
2023-05-25T10:47:11.126Z,95336.00
2023-05-25T10:48:10.587Z,95332.00
2023-05-25T10:49:10.517Z,95332.00
2023-05-25T10:50:10.545Z,95334.00
2023-05-25T10:51:12.000Z,95332.00
2023-05-25T10:52:10.568Z,95330.00
2023-05-25T10:53:10.952Z,95330.00
2023-05-25T10:54:10.630Z,95328.00
2023-05-25T10:55:10.649Z,95328.00
2023-05-25T10:56:10.775Z,95326.00
2023-05-25T10:57:10.715Z,95326.00
2023-05-25T10:58:10.968Z,95322.00
2023-05-25T10:59:10.702Z,95320.00
2023-05-25T11:00:10.775Z,95318.00
2023-05-25T11:01:10.853Z,95320.00
2023-05-25T11:02:10.765Z,95313.00
2023-05-25T11:03:11.036Z,95311.00
2023-05-25T11:04:10.902Z,95315.00
2023-05-25T11:05:10.815Z,95311.00
2023-05-25T11:06:10.820Z,95307.00
2023-05-25T11:07:10.838Z,95307.00
2023-05-25T11:08:10.963Z,95305.00
2023-05-25T11:09:11.468Z,95303.00
2023-05-25T11:10:10.883Z,95303.00
2023-05-25T11:11:10.945Z,95299.00
2023-05-25T11:12:10.967Z,95299.00
2023-05-25T11:13:11.022Z,95299.00
2023-05-25T11:14:10.978Z,95295.00
2023-05-25T11:15:11.019Z,95295.00
2023-05-25T11:16:11.080Z,95293.00
2023-05-25T11:17:11.201Z,95295.00
2023-05-25T11:18:11.466Z,95293.00
2023-05-25T11:19:11.156Z,95289.00
2023-05-25T11:20:11.204Z,95285.00
2023-05-25T11:21:11.171Z,95285.00
2023-05-25T11:22:11.205Z,95285.00
2023-05-25T11:23:11.462Z,95283.00
2023-05-25T11:24:11.243Z,95281.00
2023-05-25T11:25:11.243Z,95281.00
2023-05-25T11:26:11.312Z,95281.00
2023-05-25T11:27:11.345Z,95279.00
2023-05-25T11:28:11.390Z,95279.00
2023-05-25T11:29:11.387Z,95275.00
2023-05-25T11:30:11.438Z,95277.00
2023-05-25T11:31:11.466Z,95273.00
2023-05-25T11:32:11.504Z,95271.00
2023-05-25T11:33:11.985Z,95271.00
2023-05-25T11:34:12.549Z,95268.00
2023-05-25T11:35:11.551Z,95269.00
2023-05-25T11:36:11.601Z,95264.00
2023-05-25T11:37:12.283Z,95264.00
2023-05-25T11:38:11.634Z,95264.00
2023-05-25T11:39:21.923Z,95266.00
2023-05-25T11:40:12.654Z,95266.00
2023-05-25T11:41:11.588Z,95264.00
2023-05-25T11:42:11.546Z,95262.00
2023-05-25T11:43:11.525Z,95260.00
2023-05-25T11:44:11.503Z,95269.00
2023-05-25T11:45:11.488Z,95266.00
2023-05-25T11:46:11.471Z,95266.00
2023-05-25T11:47:11.404Z,95262.00
2023-05-25T11:48:11.406Z,95260.00
2023-05-25T11:49:11.394Z,95258.00